sensor_id;sensor_type;location;lat;lon;timestamp;temperature;humidity
15013;DHT22;7603;49.432;11.418;2023-05-21T00:00:47;18.00;93.50
15013;DHT22;7603;49.432;11.418;2023-05-21T00:03:13;17.90;93.50
15013;DHT22;7603;49.432;11.418;2023-05-21T00:05:41;17.90;93.80
15013;DHT22;7603;49.432;11.418;2023-05-21T00:08:11;17.80;93.90
15013;DHT22;7603;49.432;11.418;2023-05-21T00:10:39;17.70;94.20
15013;DHT22;7603;49.432;11.418;2023-05-21T00:13:05;17.70;94.40
15013;DHT22;7603;49.432;11.418;2023-05-21T00:15:35;17.60;94.70
15013;DHT22;7603;49.432;11.418;2023-05-21T00:18:01;17.50;94.90
15013;DHT22;7603;49.432;11.418;2023-05-21T00:20:32;17.40;95.20
15013;DHT22;7603;49.432;11.418;2023-05-21T00:22:59;17.30;95.20
15013;DHT22;7603;49.432;11.418;2023-05-21T00:25:27;17.20;95.30
15013;DHT22;7603;49.432;11.418;2023-05-21T00:27:54;17.20;95.40
15013;DHT22;7603;49.432;11.418;2023-05-21T00:30:22;17.20;95.30
15013;DHT22;7603;49.432;11.418;2023-05-21T00:32:48;17.30;95.30
15013;DHT22;7603;49.432;11.418;2023-05-21T00:35:15;17.30;95.30
15013;DHT22;7603;49.432;11.418;2023-05-21T00:37:41;17.30;95.40
15013;DHT22;7603;49.432;11.418;2023-05-21T00:40:08;17.20;95.40
15013;DHT22;7603;49.432;11.418;2023-05-21T00:42:36;17.20;95.30
15013;DHT22;7603;49.432;11.418;2023-05-21T00:45:08;17.20;95.40
15013;DHT22;7603;49.432;11.418;2023-05-21T00:47:37;17.20;95.40
15013;DHT22;7603;49.432;11.418;2023-05-21T00:50:06;17.20;95.50
15013;DHT22;7603;49.432;11.418;2023-05-21T00:52:33;17.10;95.50
15013;DHT22;7603;49.432;11.418;2023-05-21T00:55:07;17.10;95.70
15013;DHT22;7603;49.432;11.418;2023-05-21T00:57:32;17.00;96.00
15013;DHT22;7603;49.432;11.418;2023-05-21T00:59:58;16.90;96.10
15013;DHT22;7603;49.432;11.418;2023-05-21T01:02:24;16.80;96.30
15013;DHT22;7603;49.432;11.418;2023-05-21T01:04:53;16.80;96.60
15013;DHT22;7603;49.432;11.418;2023-05-21T01:07:20;16.70;96.80
15013;DHT22;7603;49.432;11.418;2023-05-21T01:09:46;16.60;97.10
15013;DHT22;7603;49.432;11.418;2023-05-21T01:12:13;16.50;97.30
15013;DHT22;7603;49.432;11.418;2023-05-21T01:14:40;16.50;97.80
15013;DHT22;7603;49.432;11.418;2023-05-21T01:17:06;16.40;98.00
15013;DHT22;7603;49.432;11.418;2023-05-21T01:19:35;16.30;98.40
15013;DHT22;7603;49.432;11.418;2023-05-21T01:22:04;16.30;98.60
15013;DHT22;7603;49.432;11.418;2023-05-21T01:24:30;16.30;98.70
15013;DHT22;7603;49.432;11.418;2023-05-21T01:26:57;16.20;98.90
15013;DHT22;7603;49.432;11.418;2023-05-21T01:29:23;16.20;99.20
15013;DHT22;7603;49.432;11.418;2023-05-21T01:32:13;16.20;99.60
15013;DHT22;7603;49.432;11.418;2023-05-21T01:39:55;16.10;99.90
15013;DHT22;7603;49.432;11.418;2023-05-21T01:42:23;16.10;99.90
15013;DHT22;7603;49.432;11.418;2023-05-21T01:44:54;16.10;99.90
15013;DHT22;7603;49.432;11.418;2023-05-21T01:47:23;16.00;99.90
15013;DHT22;7603;49.432;11.418;2023-05-21T01:49:50;16.00;99.90
15013;DHT22;7603;49.432;11.418;2023-05-21T01:52:16;16.00;99.90
15013;DHT22;7603;49.432;11.418;2023-05-21T01:54:41;16.00;99.90
15013;DHT22;7603;49.432;11.418;2023-05-21T01:57:07;16.00;99.90
15013;DHT22;7603;49.432;11.418;2023-05-21T01:59:33;16.00;99.90
15013;DHT22;7603;49.432;11.418;2023-05-21T02:01:58;16.00;99.90
15013;DHT22;7603;49.432;11.418;2023-05-21T02:04:24;15.90;99.90
15013;DHT22;7603;49.432;11.418;2023-05-21T02:06:50;15.90;99.90
15013;DHT22;7603;49.432;11.418;2023-05-21T02:09:16;15.90;99.90
15013;DHT22;7603;49.432;11.418;2023-05-21T02:11:42;15.90;99.90
15013;DHT22;7603;49.432;11.418;2023-05-21T02:14:07;15.80;99.90
15013;DHT22;7603;49.432;11.418;2023-05-21T02:16:34;15.80;99.90
15013;DHT22;7603;49.432;11.418;2023-05-21T02:19:00;15.80;99.90
15013;DHT22;7603;49.432;11.418;2023-05-21T02:21:26;15.70;99.90
15013;DHT22;7603;49.432;11.418;2023-05-21T02:23:51;15.70;99.90
15013;DHT22;7603;49.432;11.418;2023-05-21T02:26:17;15.60;99.90
15013;DHT22;7603;49.432;11.418;2023-05-21T02:28:43;15.60;99.90
15013;DHT22;7603;49.432;11.418;2023-05-21T02:31:08;15.50;99.90
15013;DHT22;7603;49.432;11.418;2023-05-21T02:33:34;15.50;99.90
15013;DHT22;7603;49.432;11.418;2023-05-21T02:36:00;15.40;99.90
15013;DHT22;7603;49.432;11.418;2023-05-21T02:38:25;15.50;99.90
15013;DHT22;7603;49.432;11.418;2023-05-21T02:40:51;15.50;99.90
15013;DHT22;7603;49.432;11.418;2023-05-21T02:43:17;15.40;99.90
15013;DHT22;7603;49.432;11.418;2023-05-21T02:45:43;15.40;99.90
15013;DHT22;7603;49.432;11.418;2023-05-21T02:48:08;15.30;99.90
15013;DHT22;7603;49.432;11.418;2023-05-21T02:50:34;15.30;99.90
15013;DHT22;7603;49.432;11.418;2023-05-21T02:52:59;15.30;99.90
15013;DHT22;7603;49.432;11.418;2023-05-21T02:55:25;15.20;99.90
15013;DHT22;7603;49.432;11.418;2023-05-21T02:57:51;15.20;99.90
15013;DHT22;7603;49.432;11.418;2023-05-21T03:00:16;15.20;99.90
15013;DHT22;7603;49.432;11.418;2023-05-21T03:02:42;15.20;99.90
15013;DHT22;7603;49.432;11.418;2023-05-21T03:05:08;15.20;99.90
15013;DHT22;7603;49.432;11.418;2023-05-21T03:07:34;15.10;99.90
15013;DHT22;7603;49.432;11.418;2023-05-21T03:10:00;15.10;99.90
15013;DHT22;7603;49.432;11.418;2023-05-21T03:12:25;15.10;99.90
15013;DHT22;7603;49.432;11.418;2023-05-21T03:14:51;15.00;99.90
15013;DHT22;7603;49.432;11.418;2023-05-21T03:17:17;15.00;99.90
15013;DHT22;7603;49.432;11.418;2023-05-21T03:19:43;15.00;99.90
15013;DHT22;7603;49.432;11.418;2023-05-21T03:22:09;15.00;99.90
15013;DHT22;7603;49.432;11.418;2023-05-21T03:24:37;15.00;99.90
15013;DHT22;7603;49.432;11.418;2023-05-21T03:27:03;15.00;99.90
15013;DHT22;7603;49.432;11.418;2023-05-21T03:29:31;15.00;99.90
15013;DHT22;7603;49.432;11.418;2023-05-21T03:31:57;15.00;99.90
15013;DHT22;7603;49.432;11.418;2023-05-21T03:34:22;15.00;99.90
15013;DHT22;7603;49.432;11.418;2023-05-21T03:36:49;15.00;99.90
15013;DHT22;7603;49.432;11.418;2023-05-21T03:39:15;15.00;99.90
15013;DHT22;7603;49.432;11.418;2023-05-21T03:41:40;15.00;99.90
15013;DHT22;7603;49.432;11.418;2023-05-21T03:44:06;15.00;99.90
15013;DHT22;7603;49.432;11.418;2023-05-21T03:46:32;15.00;99.90
15013;DHT22;7603;49.432;11.418;2023-05-21T03:48:58;15.00;99.90
15013;DHT22;7603;49.432;11.418;2023-05-21T03:51:23;15.00;99.90
15013;DHT22;7603;49.432;11.418;2023-05-21T03:53:50;15.00;99.90
15013;DHT22;7603;49.432;11.418;2023-05-21T03:56:16;15.00;99.90
15013;DHT22;7603;49.432;11.418;2023-05-21T03:58:42;15.00;99.90
15013;DHT22;7603;49.432;11.418;2023-05-21T04:01:07;15.00;99.90
15013;DHT22;7603;49.432;11.418;2023-05-21T04:03:34;14.90;99.90
15013;DHT22;7603;49.432;11.418;2023-05-21T04:06:00;14.90;99.90
15013;DHT22;7603;49.432;11.418;2023-05-21T04:08:26;14.90;99.90
15013;DHT22;7603;49.432;11.418;2023-05-21T04:10:51;14.90;99.90
15013;DHT22;7603;49.432;11.418;2023-05-21T04:13:17;14.90;99.90
15013;DHT22;7603;49.432;11.418;2023-05-21T04:15:42;14.90;99.90
15013;DHT22;7603;49.432;11.418;2023-05-21T04:18:13;14.90;99.90
15013;DHT22;7603;49.432;11.418;2023-05-21T04:20:42;14.90;99.90
15013;DHT22;7603;49.432;11.418;2023-05-21T04:23:09;15.00;99.90
15013;DHT22;7603;49.432;11.418;2023-05-21T04:25:34;15.00;99.90
15013;DHT22;7603;49.432;11.418;2023-05-21T04:28:00;15.00;99.90
15013;DHT22;7603;49.432;11.418;2023-05-21T04:30:26;15.10;99.90
15013;DHT22;7603;49.432;11.418;2023-05-21T04:32:52;15.20;99.90
15013;DHT22;7603;49.432;11.418;2023-05-21T04:35:19;15.30;99.90
15013;DHT22;7603;49.432;11.418;2023-05-21T04:37:44;15.40;99.90
15013;DHT22;7603;49.432;11.418;2023-05-21T04:40:13;15.50;99.90
15013;DHT22;7603;49.432;11.418;2023-05-21T04:42:43;15.50;99.90
15013;DHT22;7603;49.432;11.418;2023-05-21T04:45:09;15.60;99.90
15013;DHT22;7603;49.432;11.418;2023-05-21T04:47:35;15.60;99.90
15013;DHT22;7603;49.432;11.418;2023-05-21T04:50:02;15.70;99.90
15013;DHT22;7603;49.432;11.418;2023-05-21T04:52:29;15.70;99.90
15013;DHT22;7603;49.432;11.418;2023-05-21T04:54:55;15.80;99.90
15013;DHT22;7603;49.432;11.418;2023-05-21T04:57:22;15.80;99.90
15013;DHT22;7603;49.432;11.418;2023-05-21T04:59:49;15.90;99.90
15013;DHT22;7603;49.432;11.418;2023-05-21T05:02:15;16.00;99.90
15013;DHT22;7603;49.432;11.418;2023-05-21T05:04:40;16.00;99.90
15013;DHT22;7603;49.432;11.418;2023-05-21T05:07:08;16.10;99.90
15013;DHT22;7603;49.432;11.418;2023-05-21T05:09:34;16.10;99.90
15013;DHT22;7603;49.432;11.418;2023-05-21T05:12:00;16.20;99.90
15013;DHT22;7603;49.432;11.418;2023-05-21T05:14:25;16.30;99.90
15013;DHT22;7603;49.432;11.418;2023-05-21T05:16:51;16.40;99.90
15013;DHT22;7603;49.432;11.418;2023-05-21T05:19:19;16.50;99.90
15013;DHT22;7603;49.432;11.418;2023-05-21T05:21:44;16.70;99.90
15013;DHT22;7603;49.432;11.418;2023-05-21T05:24:10;16.70;99.90
15013;DHT22;7603;49.432;11.418;2023-05-21T05:26:36;16.80;99.90
15013;DHT22;7603;49.432;11.418;2023-05-21T05:29:04;16.90;99.90
15013;DHT22;7603;49.432;11.418;2023-05-21T05:31:30;17.10;99.90
15013;DHT22;7603;49.432;11.418;2023-05-21T05:33:58;17.20;99.90
15013;DHT22;7603;49.432;11.418;2023-05-21T05:36:24;17.40;99.90
15013;DHT22;7603;49.432;11.418;2023-05-21T05:38:51;17.50;99.90
15013;DHT22;7603;49.432;11.418;2023-05-21T05:41:17;17.60;99.90
15013;DHT22;7603;49.432;11.418;2023-05-21T05:43:43;17.80;99.90
15013;DHT22;7603;49.432;11.418;2023-05-21T05:46:09;17.90;99.90
15013;DHT22;7603;49.432;11.418;2023-05-21T05:48:34;18.00;99.90
15013;DHT22;7603;49.432;11.418;2023-05-21T05:51:00;18.10;99.90
15013;DHT22;7603;49.432;11.418;2023-05-21T05:53:26;18.20;99.90
15013;DHT22;7603;49.432;11.418;2023-05-21T05:55:51;18.40;99.90
15013;DHT22;7603;49.432;11.418;2023-05-21T05:58:17;18.50;99.90
15013;DHT22;7603;49.432;11.418;2023-05-21T06:00:43;18.70;99.90
15013;DHT22;7603;49.432;11.418;2023-05-21T06:03:09;18.80;99.90
15013;DHT22;7603;49.432;11.418;2023-05-21T06:05:36;18.90;99.90
15013;DHT22;7603;49.432;11.418;2023-05-21T06:08:01;19.00;99.90
15013;DHT22;7603;49.432;11.418;2023-05-21T06:10:27;19.10;99.90
15013;DHT22;7603;49.432;11.418;2023-05-21T06:12:53;19.30;99.70
15013;DHT22;7603;49.432;11.418;2023-05-21T06:15:18;19.30;98.80
15013;DHT22;7603;49.432;11.418;2023-05-21T06:17:44;19.40;98.20
15013;DHT22;7603;49.432;11.418;2023-05-21T06:20:11;19.50;97.70
15013;DHT22;7603;49.432;11.418;2023-05-21T06:22:38;19.60;97.20
15013;DHT22;7603;49.432;11.418;2023-05-21T06:25:04;19.70;96.90
15013;DHT22;7603;49.432;11.418;2023-05-21T06:27:31;19.90;96.40
15013;DHT22;7603;49.432;11.418;2023-05-21T06:29:59;20.00;95.80
15013;DHT22;7603;49.432;11.418;2023-05-21T06:32:25;20.20;95.10
15013;DHT22;7603;49.432;11.418;2023-05-21T06:34:51;20.30;94.30
15013;DHT22;7603;49.432;11.418;2023-05-21T06:37:23;20.50;93.80
15013;DHT22;7603;49.432;11.418;2023-05-21T06:39:49;20.70;93.60
15013;DHT22;7603;49.432;11.418;2023-05-21T06:42:15;20.80;93.10
15013;DHT22;7603;49.432;11.418;2023-05-21T06:44:42;21.00;92.50
15013;DHT22;7603;49.432;11.418;2023-05-21T06:47:10;21.10;91.70
15013;DHT22;7603;49.432;11.418;2023-05-21T06:49:37;21.40;91.10
15013;DHT22;7603;49.432;11.418;2023-05-21T06:52:04;21.60;90.30
15013;DHT22;7603;49.432;11.418;2023-05-21T06:54:31;22.00;88.60
15013;DHT22;7603;49.432;11.418;2023-05-21T06:56:57;22.30;87.10
15013;DHT22;7603;49.432;11.418;2023-05-21T06:59:25;22.60;85.40
15013;DHT22;7603;49.432;11.418;2023-05-21T07:01:54;22.90;84.10
15013;DHT22;7603;49.432;11.418;2023-05-21T07:04:20;23.10;83.00
15013;DHT22;7603;49.432;11.418;2023-05-21T07:06:47;23.30;81.30
15013;DHT22;7603;49.432;11.418;2023-05-21T07:09:13;23.50;80.00
15013;DHT22;7603;49.432;11.418;2023-05-21T07:11:40;23.60;78.90
15013;DHT22;7603;49.432;11.418;2023-05-21T07:14:08;23.80;77.30
15013;DHT22;7603;49.432;11.418;2023-05-21T07:16:34;23.90;76.30
15013;DHT22;7603;49.432;11.418;2023-05-21T07:19:00;24.10;75.10
15013;DHT22;7603;49.432;11.418;2023-05-21T07:21:28;24.20;74.00
15013;DHT22;7603;49.432;11.418;2023-05-21T07:23:54;24.30;72.80
15013;DHT22;7603;49.432;11.418;2023-05-21T07:26:21;24.40;72.20
15013;DHT22;7603;49.432;11.418;2023-05-21T07:28:47;24.40;71.50
15013;DHT22;7603;49.432;11.418;2023-05-21T07:31:13;24.50;71.70
15013;DHT22;7603;49.432;11.418;2023-05-21T07:33:38;24.50;70.00
15013;DHT22;7603;49.432;11.418;2023-05-21T07:36:04;24.60;69.90
15013;DHT22;7603;49.432;11.418;2023-05-21T07:38:30;24.70;69.00
15013;DHT22;7603;49.432;11.418;2023-05-21T07:40:56;24.70;68.70
15013;DHT22;7603;49.432;11.418;2023-05-21T07:43:22;24.90;68.00
15013;DHT22;7603;49.432;11.418;2023-05-21T07:45:48;25.00;67.70
15013;DHT22;7603;49.432;11.418;2023-05-21T07:48:14;25.10;67.10
15013;DHT22;7603;49.432;11.418;2023-05-21T07:50:39;25.20;66.30
15013;DHT22;7603;49.432;11.418;2023-05-21T07:53:06;25.20;66.10
15013;DHT22;7603;49.432;11.418;2023-05-21T07:55:31;25.30;65.70
15013;DHT22;7603;49.432;11.418;2023-05-21T07:57:57;25.40;64.70
15013;DHT22;7603;49.432;11.418;2023-05-21T08:00:23;25.40;65.00
15013;DHT22;7603;49.432;11.418;2023-05-21T08:02:49;25.50;64.20
15013;DHT22;7603;49.432;11.418;2023-05-21T08:05:16;25.60;63.10
15013;DHT22;7603;49.432;11.418;2023-05-21T08:07:42;25.60;63.00
15013;DHT22;7603;49.432;11.418;2023-05-21T08:10:08;25.60;63.00
15013;DHT22;7603;49.432;11.418;2023-05-21T08:12:34;25.70;63.80
15013;DHT22;7603;49.432;11.418;2023-05-21T08:14:59;25.80;62.50
15013;DHT22;7603;49.432;11.418;2023-05-21T08:17:25;25.90;62.00
15013;DHT22;7603;49.432;11.418;2023-05-21T08:19:52;26.10;61.90
15013;DHT22;7603;49.432;11.418;2023-05-21T08:22:18;26.30;61.80
15013;DHT22;7603;49.432;11.418;2023-05-21T08:24:44;26.50;60.80
15013;DHT22;7603;49.432;11.418;2023-05-21T08:27:10;26.60;60.20
15013;DHT22;7603;49.432;11.418;2023-05-21T08:29:36;26.60;59.80
15013;DHT22;7603;49.432;11.418;2023-05-21T08:32:04;26.70;59.70
15013;DHT22;7603;49.432;11.418;2023-05-21T08:34:30;26.90;60.30
15013;DHT22;7603;49.432;11.418;2023-05-21T08:36:57;27.00;59.40
15013;DHT22;7603;49.432;11.418;2023-05-21T08:39:24;27.00;59.00
15013;DHT22;7603;49.432;11.418;2023-05-21T08:42:00;27.10;58.60
15013;DHT22;7603;49.432;11.418;2023-05-21T08:44:32;27.20;58.30
15013;DHT22;7603;49.432;11.418;2023-05-21T08:47:04;27.20;58.00
15013;DHT22;7603;49.432;11.418;2023-05-21T08:49:34;27.20;57.90
15013;DHT22;7603;49.432;11.418;2023-05-21T08:52:01;27.30;57.70
15013;DHT22;7603;49.432;11.418;2023-05-21T08:54:28;27.40;57.60
15013;DHT22;7603;49.432;11.418;2023-05-21T08:56:56;27.50;57.10
15013;DHT22;7603;49.432;11.418;2023-05-21T08:59:23;27.60;57.20
15013;DHT22;7603;49.432;11.418;2023-05-21T09:01:51;27.80;56.80
15013;DHT22;7603;49.432;11.418;2023-05-21T09:04:17;27.90;55.80
15013;DHT22;7603;49.432;11.418;2023-05-21T09:06:44;27.90;55.20
15013;DHT22;7603;49.432;11.418;2023-05-21T09:09:23;27.90;55.60
15013;DHT22;7603;49.432;11.418;2023-05-21T09:11:52;27.90;55.80
15013;DHT22;7603;49.432;11.418;2023-05-21T09:14:20;28.00;55.80
15013;DHT22;7603;49.432;11.418;2023-05-21T09:16:48;28.20;55.30
15013;DHT22;7603;49.432;11.418;2023-05-21T09:19:15;28.50;55.20
15013;DHT22;7603;49.432;11.418;2023-05-21T09:21:43;28.90;55.50
15013;DHT22;7603;49.432;11.418;2023-05-21T09:24:11;29.20;55.20
15013;DHT22;7603;49.432;11.418;2023-05-21T09:26:43;29.60;54.80
15013;DHT22;7603;49.432;11.418;2023-05-21T09:29:12;29.90;51.20
15013;DHT22;7603;49.432;11.418;2023-05-21T09:31:42;29.60;49.40
15013;DHT22;7603;49.432;11.418;2023-05-21T09:34:12;29.50;49.70
15013;DHT22;7603;49.432;11.418;2023-05-21T09:36:42;29.40;49.80
15013;DHT22;7603;49.432;11.418;2023-05-21T09:39:27;29.40;49.20
15013;DHT22;7603;49.432;11.418;2023-05-21T09:41:57;29.50;48.90
15013;DHT22;7603;49.432;11.418;2023-05-21T09:44:23;29.30;47.00
15013;DHT22;7603;49.432;11.418;2023-05-21T09:46:55;29.10;47.60
15013;DHT22;7603;49.432;11.418;2023-05-21T09:49:24;28.90;48.70
15013;DHT22;7603;49.432;11.418;2023-05-21T09:51:57;29.00;49.30
15013;DHT22;7603;49.432;11.418;2023-05-21T09:54:24;29.10;48.40
15013;DHT22;7603;49.432;11.418;2023-05-21T09:56:51;29.20;49.00
15013;DHT22;7603;49.432;11.418;2023-05-21T09:59:20;29.30;48.20
15013;DHT22;7603;49.432;11.418;2023-05-21T10:01:46;29.40;47.90
15013;DHT22;7603;49.432;11.418;2023-05-21T10:04:14;29.40;48.20
15013;DHT22;7603;49.432;11.418;2023-05-21T10:06:43;29.50;48.60
15013;DHT22;7603;49.432;11.418;2023-05-21T10:09:09;29.60;48.50
15013;DHT22;7603;49.432;11.418;2023-05-21T10:11:36;29.70;48.50
15013;DHT22;7603;49.432;11.418;2023-05-21T10:14:06;29.90;48.10
15013;DHT22;7603;49.432;11.418;2023-05-21T10:16:34;30.10;48.00
15013;DHT22;7603;49.432;11.418;2023-05-21T10:19:00;30.50;47.50
15013;DHT22;7603;49.432;11.418;2023-05-21T10:21:27;31.00;46.90
15013;DHT22;7603;49.432;11.418;2023-05-21T10:23:54;31.50;45.30
15013;DHT22;7603;49.432;11.418;2023-05-21T10:26:23;32.10;44.50
15013;DHT22;7603;49.432;11.418;2023-05-21T10:28:50;32.70;43.80
15013;DHT22;7603;49.432;11.418;2023-05-21T10:31:15;33.70;43.00
15013;DHT22;7603;49.432;11.418;2023-05-21T10:33:42;34.90;41.50
15013;DHT22;7603;49.432;11.418;2023-05-21T10:36:08;36.00;38.80
15013;DHT22;7603;49.432;11.418;2023-05-21T10:38:35;36.70;37.70
15013;DHT22;7603;49.432;11.418;2023-05-21T10:41:02;36.90;36.70
15013;DHT22;7603;49.432;11.418;2023-05-21T10:54:59;36.00;35.60
15013;DHT22;7603;49.432;11.418;2023-05-21T10:58:08;35.70;35.70
15013;DHT22;7603;49.432;11.418;2023-05-21T11:00:35;35.10;36.70
15013;DHT22;7603;49.432;11.418;2023-05-21T11:03:02;34.80;38.00
15013;DHT22;7603;49.432;11.418;2023-05-21T11:05:50;34.80;37.60
15013;DHT22;7603;49.432;11.418;2023-05-21T11:08:29;34.80;37.30
15013;DHT22;7603;49.432;11.418;2023-05-21T11:11:01;34.70;37.00
15013;DHT22;7603;49.432;11.418;2023-05-21T11:13:28;34.60;36.00
15013;DHT22;7603;49.432;11.418;2023-05-21T11:26:19;35.10;34.70
15013;DHT22;7603;49.432;11.418;2023-05-21T11:29:05;35.80;33.40
15013;DHT22;7603;49.432;11.418;2023-05-21T11:31:32;36.50;32.80
15013;DHT22;7603;49.432;11.418;2023-05-21T11:34:11;37.20;31.50
15013;DHT22;7603;49.432;11.418;2023-05-21T11:36:39;38.00;31.10
15013;DHT22;7603;49.432;11.418;2023-05-21T11:39:19;39.10;30.30
15013;DHT22;7603;49.432;11.418;2023-05-21T11:42:01;40.20;29.60
15013;DHT22;7603;49.432;11.418;2023-05-21T11:47:09;42.40;27.00
15013;DHT22;7603;49.432;11.418;2023-05-21T11:49:35;43.40;26.60
15013;DHT22;7603;49.432;11.418;2023-05-21T11:52:06;44.10;25.60
15013;DHT22;7603;49.432;11.418;2023-05-21T11:54:36;44.00;25.00
15013;DHT22;7603;49.432;11.418;2023-05-21T11:57:06;43.70;25.00
15013;DHT22;7603;49.432;11.418;2023-05-21T11:59:32;43.80;24.90
15013;DHT22;7603;49.432;11.418;2023-05-21T12:01:59;44.20;24.10
15013;DHT22;7603;49.432;11.418;2023-05-21T12:04:31;44.20;24.70
15013;DHT22;7603;49.432;11.418;2023-05-21T12:07:06;44.20;24.40
15013;DHT22;7603;49.432;11.418;2023-05-21T12:09:49;44.50;24.30
15013;DHT22;7603;49.432;11.418;2023-05-21T12:12:17;44.60;23.50
15013;DHT22;7603;49.432;11.418;2023-05-21T12:14:44;44.70;23.50
15013;DHT22;7603;49.432;11.418;2023-05-21T12:17:15;45.10;23.60
15013;DHT22;7603;49.432;11.418;2023-05-21T12:19:42;45.60;23.40
15013;DHT22;7603;49.432;11.418;2023-05-21T12:22:08;45.90;23.30
15013;DHT22;7603;49.432;11.418;2023-05-21T12:24:35;46.40;23.00
15013;DHT22;7603;49.432;11.418;2023-05-21T12:27:02;46.40;22.40
15013;DHT22;7603;49.432;11.418;2023-05-21T12:29:37;46.30;22.30
15013;DHT22;7603;49.432;11.418;2023-05-21T12:32:07;46.40;22.00
15013;DHT22;7603;49.432;11.418;2023-05-21T12:34:37;46.60;21.90
15013;DHT22;7603;49.432;11.418;2023-05-21T12:37:05;46.40;22.00
15013;DHT22;7603;49.432;11.418;2023-05-21T12:39:36;46.50;22.10
15013;DHT22;7603;49.432;11.418;2023-05-21T12:42:02;46.90;22.30
15013;DHT22;7603;49.432;11.418;2023-05-21T12:44:30;47.50;22.30
15013;DHT22;7603;49.432;11.418;2023-05-21T12:46:56;47.40;20.80
15013;DHT22;7603;49.432;11.418;2023-05-21T12:49:37;46.70;21.20
15013;DHT22;7603;49.432;11.418;2023-05-21T12:52:16;46.10;21.40
15013;DHT22;7603;49.432;11.418;2023-05-21T12:54:47;45.50;21.70
15013;DHT22;7603;49.432;11.418;2023-05-21T12:57:15;45.40;22.30
15013;DHT22;7603;49.432;11.418;2023-05-21T12:59:57;45.20;22.00
15013;DHT22;7603;49.432;11.418;2023-05-21T13:04:59;45.70;22.00
15013;DHT22;7603;49.432;11.418;2023-05-21T13:07:27;45.90;21.40
15013;DHT22;7603;49.432;11.418;2023-05-21T13:09:53;46.10;21.60
15013;DHT22;7603;49.432;11.418;2023-05-21T13:12:21;46.50;21.50
15013;DHT22;7603;49.432;11.418;2023-05-21T13:14:50;46.70;21.30
15013;DHT22;7603;49.432;11.418;2023-05-21T13:17:19;47.10;20.60
15013;DHT22;7603;49.432;11.418;2023-05-21T13:20:13;47.40;20.40
15013;DHT22;7603;49.432;11.418;2023-05-21T13:22:44;48.00;20.50
15013;DHT22;7603;49.432;11.418;2023-05-21T13:25:15;48.70;20.80
15013;DHT22;7603;49.432;11.418;2023-05-21T13:27:41;48.70;19.90
15013;DHT22;7603;49.432;11.418;2023-05-21T13:30:08;48.40;19.80
15013;DHT22;7603;49.432;11.418;2023-05-21T13:32:34;48.00;19.70
15013;DHT22;7603;49.432;11.418;2023-05-21T13:35:03;47.70;19.90
15013;DHT22;7603;49.432;11.418;2023-05-21T13:37:29;47.50;19.40
15013;DHT22;7603;49.432;11.418;2023-05-21T13:39:55;47.20;20.00
15013;DHT22;7603;49.432;11.418;2023-05-21T13:42:21;47.10;20.10
15013;DHT22;7603;49.432;11.418;2023-05-21T13:44:48;47.10;19.90
15013;DHT22;7603;49.432;11.418;2023-05-21T13:47:13;47.30;19.90
15013;DHT22;7603;49.432;11.418;2023-05-21T13:49:39;47.60;19.60
15013;DHT22;7603;49.432;11.418;2023-05-21T13:52:06;48.40;19.80
15013;DHT22;7603;49.432;11.418;2023-05-21T13:54:32;49.40;19.30
15013;DHT22;7603;49.432;11.418;2023-05-21T13:56:58;50.30;18.70
15013;DHT22;7603;49.432;11.418;2023-05-21T13:59:24;51.10;18.50
15013;DHT22;7603;49.432;11.418;2023-05-21T14:01:52;51.00;18.20
15013;DHT22;7603;49.432;11.418;2023-05-21T14:04:18;50.50;18.50
15013;DHT22;7603;49.432;11.418;2023-05-21T14:06:45;50.00;18.70
15013;DHT22;7603;49.432;11.418;2023-05-21T14:09:11;50.20;18.90
15013;DHT22;7603;49.432;11.418;2023-05-21T14:11:37;51.10;18.60
15013;DHT22;7603;49.432;11.418;2023-05-21T14:14:03;51.20;18.60
15013;DHT22;7603;49.432;11.418;2023-05-21T14:16:29;50.90;18.50
15013;DHT22;7603;49.432;11.418;2023-05-21T14:18:57;50.70;18.70
15013;DHT22;7603;49.432;11.418;2023-05-21T14:21:24;50.80;18.60
15013;DHT22;7603;49.432;11.418;2023-05-21T14:23:50;51.60;18.50
15013;DHT22;7603;49.432;11.418;2023-05-21T14:26:16;52.20;18.10
15013;DHT22;7603;49.432;11.418;2023-05-21T14:28:42;52.40;18.20
15013;DHT22;7603;49.432;11.418;2023-05-21T14:31:09;52.40;18.20
15013;DHT22;7603;49.432;11.418;2023-05-21T14:33:35;52.00;18.30
15013;DHT22;7603;49.432;11.418;2023-05-21T14:36:02;51.40;17.90
15013;DHT22;7603;49.432;11.418;2023-05-21T14:38:28;51.00;18.50
15013;DHT22;7603;49.432;11.418;2023-05-21T14:40:55;50.40;18.80
15013;DHT22;7603;49.432;11.418;2023-05-21T14:43:21;49.90;19.00
15013;DHT22;7603;49.432;11.418;2023-05-21T14:45:48;49.30;19.00
15013;DHT22;7603;49.432;11.418;2023-05-21T14:48:16;49.10;19.00
15013;DHT22;7603;49.432;11.418;2023-05-21T14:50:43;49.10;19.60
15013;DHT22;7603;49.432;11.418;2023-05-21T14:53:10;49.40;19.30
15013;DHT22;7603;49.432;11.418;2023-05-21T14:55:36;49.40;19.50
15013;DHT22;7603;49.432;11.418;2023-05-21T14:58:03;49.50;19.40
15013;DHT22;7603;49.432;11.418;2023-05-21T15:00:30;49.00;19.70
15013;DHT22;7603;49.432;11.418;2023-05-21T15:02:57;48.90;19.60
15013;DHT22;7603;49.432;11.418;2023-05-21T15:05:24;49.10;19.30
15013;DHT22;7603;49.432;11.418;2023-05-21T15:07:50;49.20;19.00
15013;DHT22;7603;49.432;11.418;2023-05-21T15:10:16;48.90;19.00
15013;DHT22;7603;49.432;11.418;2023-05-21T15:12:41;48.20;18.70
15013;DHT22;7603;49.432;11.418;2023-05-21T15:15:08;47.50;19.20
15013;DHT22;7603;49.432;11.418;2023-05-21T15:17:34;47.30;19.40
15013;DHT22;7603;49.432;11.418;2023-05-21T15:20:00;47.30;19.40
15013;DHT22;7603;49.432;11.418;2023-05-21T15:22:29;47.20;19.40
15013;DHT22;7603;49.432;11.418;2023-05-21T15:24:55;47.40;19.80
15013;DHT22;7603;49.432;11.418;2023-05-21T15:27:21;47.50;19.70
15013;DHT22;7603;49.432;11.418;2023-05-21T15:29:46;47.90;19.50
15013;DHT22;7603;49.432;11.418;2023-05-21T15:32:13;48.10;19.30
15013;DHT22;7603;49.432;11.418;2023-05-21T15:34:38;48.10;19.40
15013;DHT22;7603;49.432;11.418;2023-05-21T15:37:04;47.80;19.60
15013;DHT22;7603;49.432;11.418;2023-05-21T15:39:30;48.00;19.80
15013;DHT22;7603;49.432;11.418;2023-05-21T15:41:56;48.50;19.60
15013;DHT22;7603;49.432;11.418;2023-05-21T15:44:23;49.50;19.50
15013;DHT22;7603;49.432;11.418;2023-05-21T15:46:48;50.70;19.10
15013;DHT22;7603;49.432;11.418;2023-05-21T15:49:15;51.50;18.70
15013;DHT22;7603;49.432;11.418;2023-05-21T15:51:47;51.50;18.40
15013;DHT22;7603;49.432;11.418;2023-05-21T15:54:13;50.70;18.80
15013;DHT22;7603;49.432;11.418;2023-05-21T15:56:40;49.30;19.10
15013;DHT22;7603;49.432;11.418;2023-05-21T15:59:06;48.10;19.60
15013;DHT22;7603;49.432;11.418;2023-05-21T16:01:32;47.20;20.00
15013;DHT22;7603;49.432;11.418;2023-05-21T16:04:03;46.20;20.20